Time;durP1;ratioP1;P1;durP2;ratioP2;P2;SDS_P1;SDS_P2;PMS_P1;PMS_P2;Temp;Humidity;BMP_temperature;BMP_pressure;BME280_temperature;BME280_humidity;BME280_pressure;Samples;Min_cycle;Max_cycle;Signal;HPM_P1;HPM_P2
2021/04/30 00:00:33;;;;;;;4.22;2.92;;;;;;;24.61;41.72;94694.63;5040453;28;20477;-81
2021/04/30 00:02:59;;;;;;;4.50;3.35;;;;;;;24.60;41.78;94698.63;5039094;28;20488;-82
2021/04/30 00:05:26;;;;;;;4.60;3.45;;;;;;;24.60;42.11;94693.16;5040573;28;20025;-82
2021/04/30 00:07:52;;;;;;;4.53;3.40;;;;;;;24.58;41.63;94696.41;5039536;28;20025;-82
2021/04/30 00:10:17;;;;;;;4.90;3.47;;;;;;;24.51;41.75;94688.13;5039771;28;20035;-81
2021/04/30 00:12:43;;;;;;;5.22;3.38;;;;;;;24.53;42.02;94693.81;5029656;28;20499;-81
2021/04/30 00:15:09;;;;;;;5.20;3.67;;;;;;;24.55;41.94;94696.75;5038953;28;20448;-81
2021/04/30 00:17:34;;;;;;;5.05;3.38;;;;;;;24.25;41.71;94652.59;5039853;28;20082;-82
2021/04/30 00:20:00;;;;;;;4.57;3.50;;;;;;;24.55;41.49;94696.75;5038473;28;20462;-82
2021/04/30 00:22:25;;;;;;;4.95;3.30;;;;;;;24.54;42.07;94695.25;5054800;28;20029;-81
2021/04/30 00:24:51;;;;;;;6.28;3.40;;;;;;;24.28;41.84;94653.53;5038023;28;20033;-83
2021/04/30 00:27:17;;;;;;;4.80;3.97;;;;;;;24.20;42.39;94656.16;5039133;28;20068;-81
2021/04/30 00:29:42;;;;;;;3.78;2.95;;;;;;;24.45;41.86;94692.94;5038122;28;20025;-82
2021/04/30 00:32:07;;;;;;;4.32;3.00;;;;;;;24.50;41.42;94700.31;5039478;28;20040;-82
2021/04/30 00:34:33;;;;;;;6.53;3.35;;;;;;;24.17;41.62;94657.22;5037867;28;20056;-82
2021/04/30 00:36:59;;;;;;;5.28;3.40;;;;;;;24.36;42.05;94707.75;5054220;28;20029;-82
2021/04/30 00:39:24;;;;;;;4.35;2.80;;;;;;;24.21;42.28;94673.97;5027866;28;20067;-81
2021/04/30 00:41:50;;;;;;;4.40;3.20;;;;;;;24.49;42.28;94720.66;5037599;28;20460;-82
2021/04/30 00:44:15;;;;;;;5.13;3.03;;;;;;;24.48;42.25;94713.72;5038396;28;20131;-81
2021/04/30 00:46:41;;;;;;;4.85;3.35;;;;;;;24.47;42.07;94734.13;5039047;28;20033;-82
2021/04/30 00:49:06;;;;;;;4.47;3.20;;;;;;;24.45;42.29;94729.19;5038025;28;20083;-82
2021/04/30 00:51:32;;;;;;;4.80;2.95;;;;;;;24.45;42.27;94726.44;5038681;28;20383;-82
2021/04/30 00:53:57;;;;;;;4.78;3.50;;;;;;;24.45;42.56;94731.91;5038508;28;20122;-82
2021/04/30 00:56:23;;;;;;;5.03;3.25;;;;;;;24.47;42.29;94728.66;5037639;28;20416;-81
2021/04/30 00:58:48;;;;;;;4.57;3.38;;;;;;;24.11;42.15;94686.56;5039019;28;20029;-82
2021/04/30 01:01:14;;;;;;;5.88;3.40;;;;;;;24.38;41.96;94734.53;5037717;28;20040;-82
2021/04/30 01:03:42;;;;;;;3.97;3.30;;;;;;;24.44;42.51;94740.63;5038533;28;20029;-82
2021/04/30 01:06:07;;;;;;;4.75;3.40;;;;;;;24.43;41.86;94733.69;5037504;28;20107;-81
2021/04/30 01:08:33;;;;;;;4.32;3.38;;;;;;;24.35;41.71;94727.38;5038268;28;20029;-82
2021/04/30 01:10:58;;;;;;;3.95;3.00;;;;;;;24.43;42.25;94728.22;5038483;28;20412;-82
2021/04/30 01:13:24;;;;;;;4.78;3.30;;;;;;;24.40;42.34;94734.72;5037265;28;20094;-82
2021/04/30 01:15:49;;;;;;;4.72;3.58;;;;;;;24.38;42.10;94748.16;5036453;28;20040;-82
2021/04/30 01:18:15;;;;;;;4.50;3.30;;;;;;;24.23;42.08;94714.41;5052343;28;20417;-82
2021/04/30 01:20:40;;;;;;;4.45;3.15;;;;;;;24.36;41.97;94728.81;5036847;28;20087;-81
2021/04/30 01:23:06;;;;;;;5.82;3.45;;;;;;;24.36;42.39;94739.75;5038363;28;20095;-82
2021/04/30 01:25:37;;;;;;;5.25;3.45;;;;;;;24.11;42.02;94713.09;5053950;28;20029;-81
2021/04/30 01:28:03;;;;;;;4.75;3.15;;;;;;;24.35;42.36;94749.22;5037009;28;20059;-81
2021/04/30 01:30:30;;;;;;;4.72;3.15;;;;;;;24.33;42.02;94751.72;5036647;28;20056;-81
2021/04/30 01:32:56;;;;;;;4.72;3.60;;;;;;;24.34;42.27;94741.53;5037411;28;20481;-81
2021/04/30 01:35:28;;;;;;;4.97;3.20;;;;;;;24.35;42.00;94743.75;5036094;28;20063;-81
2021/04/30 01:37:54;;;;;;;5.18;3.60;;;;;;;24.30;42.02;94752.72;5039639;28;20114;-82
2021/04/30 01:40:21;;;;;;;4.05;2.97;;;;;;;24.32;42.23;94755.69;5040723;28;20107;-80
2021/04/30 01:43:03;;;;;;;4.38;3.20;;;;;;;24.34;42.00;94753.19;5040802;28;20116;-82
2021/04/30 01:45:42;;;;;;;4.13;3.30;;;;;;;24.33;42.06;94757.16;5042439;28;20389;-82
2021/04/30 01:48:12;;;;;;;4.13;3.08;;;;;;;24.32;42.42;94755.69;5041611;28;20036;-82
2021/04/30 01:50:38;;;;;;;5.00;2.85;;;;;;;24.06;42.49;94731.03;5042048;28;20069;-81
2021/04/30 01:53:05;;;;;;;4.50;3.15;;;;;;;23.95;42.16;94701.22;5039454;28;20064;-81
2021/04/30 01:55:31;;;;;;;3.75;3.30;;;;;;;24.18;42.46;94740.50;5039609;28;20080;-81
2021/04/30 01:57:57;;;;;;;4.50;3.33;;;;;;;24.19;42.01;94736.53;5040414;28;20037;-82
2021/04/30 02:00:24;;;;;;;4.03;3.08;;;;;;;24.28;42.50;94749.78;5040531;28;20049;-82
2021/04/30 02:02:50;;;;;;;4.90;3.85;;;;;;;24.22;42.61;94740.22;5039140;28;20032;-82
2021/04/30 02:05:16;;;;;;;4.55;3.17;;;;;;;24.19;42.58;94733.81;5039845;28;20029;-81
2021/04/30 02:07:42;;;;;;;4.72;3.58;;;;;;;24.27;42.55;94748.31;5040334;28;20040;-83
2021/04/30 02:10:11;;;;;;;3.88;3.10;;;;;;;23.98;42.38;94716.53;5041847;28;20085;-82
2021/04/30 02:12:37;;;;;;;4.45;3.17;;;;;;;24.22;42.50;94746.41;5031396;28;20120;-83
2021/04/30 02:15:03;;;;;;;4.10;3.25;;;;;;;24.27;42.11;94759.22;5040449;28;20033;-82
2021/04/30 02:17:30;;;;;;;5.07;3.17;;;;;;;24.27;42.27;94753.75;5040189;28;20021;-82
2021/04/30 02:19:56;;;;;;;4.13;3.30;;;;;;;24.07;42.31;94729.78;5041831;28;20108;-77
2021/04/30 02:22:22;;;;;;;5.28;3.55;;;;;;;24.25;42.39;94755.56;5040020;28;20104;-82
2021/04/30 02:24:48;;;;;;;4.70;3.38;;;;;;;24.25;42.51;94759.00;5040142;28;20095;-82
2021/04/30 02:27:13;;;;;;;4.05;3.35;;;;;;;24.21;42.45;94776.94;5039414;28;20108;-82
2021/04/30 02:29:39;;;;;;;3.92;2.92;;;;;;;23.96;42.84;94735.44;5039896;28;20021;-82
2021/04/30 02:32:05;;;;;;;3.95;3.05;;;;;;;24.22;42.81;94762.78;5040153;28;20042;-82
2021/04/30 02:34:30;;;;;;;5.22;3.70;;;;;;;23.82;42.44;94702.44;5041165;28;20041;-82
2021/04/30 02:36:55;;;;;;;4.47;3.15;;;;;;;24.21;42.11;94766.75;5040544;28;20029;-81
2021/04/30 02:39:23;;;;;;;5.07;3.15;;;;;;;24.19;42.30;94742.00;5041123;28;20021;-82
2021/04/30 02:41:49;;;;;;;5.25;3.40;;;;;;;24.20;42.74;94754.38;5040908;28;20048;-82
2021/04/30 02:44:15;;;;;;;4.55;3.47;;;;;;;24.20;42.78;94770.00;5041044;28;20024;-82
2021/04/30 02:46:40;;;;;;;4.43;3.40;;;;;;;24.18;42.69;94770.53;5041071;28;20025;-82
2021/04/30 02:49:05;;;;;;;4.60;3.50;;;;;;;24.19;42.84;94774.75;5038913;28;20416;-81
2021/04/30 02:51:32;;;;;;;4.47;3.20;;;;;;;24.00;42.15;94752.22;5040926;28;20029;-84
2021/04/30 02:53:58;;;;;;;5.18;3.40;;;;;;;24.20;42.25;94776.22;5040200;28;20033;-81
2021/04/30 02:56:23;;;;;;;4.55;3.17;;;;;;;24.18;42.35;94789.63;5039617;28;20432;-82
2021/04/30 02:58:53;;;;;;;4.25;3.08;;;;;;;23.64;42.41;94708.66;5039836;28;20063;-82
2021/04/30 03:01:19;;;;;;;4.85;3.28;;;;;;;23.92;42.41;94745.88;5038643;28;20032;-82
2021/04/30 03:03:44;;;;;;;4.15;3.30;;;;;;;24.19;42.36;94785.66;5038701;28;20116;-82
2021/04/30 03:06:10;;;;;;;4.07;2.85;;;;;;;24.16;42.47;94775.78;5039991;28;20024;-82
2021/04/30 03:08:35;;;;;;;4.00;3.35;;;;;;;24.17;42.16;94793.63;5039173;28;20032;-82
2021/04/30 03:11:01;;;;;;;4.03;3.20;;;;;;;24.16;42.48;94791.41;5038734;28;20051;-82
2021/04/30 03:13:26;;;;;;;5.15;3.22;;;;;;;24.17;42.36;94799.09;5039300;28;20036;-82
2021/04/30 03:15:51;;;;;;;4.05;3.20;;;;;;;24.16;42.72;94808.53;5040363;28;20029;-81
2021/04/30 03:18:17;;;;;;;5.13;3.47;;;;;;;24.14;43.04;94805.59;5039784;28;20021;-82
2021/04/30 03:20:42;;;;;;;4.00;3.40;;;;;;;24.13;42.51;94809.56;5039308;28;20052;-82
2021/04/30 03:23:08;;;;;;;4.78;3.53;;;;;;;24.11;42.35;94801.16;5039923;28;20040;-82
2021/04/30 03:25:33;;;;;;;3.95;3.15;;;;;;;24.14;42.45;94802.84;5040160;28;20036;-81
2021/04/30 03:27:59;;;;;;;3.90;3.28;;;;;;;24.11;42.30;94808.59;5040030;28;20025;-82
2021/04/30 03:30:24;;;;;;;5.93;3.75;;;;;;;23.83;42.70;94780.28;5039044;28;20029;-82
2021/04/30 03:32:50;;;;;;;4.35;3.30;;;;;;;24.10;43.09;94812.59;5038298;28;20040;-82
2021/04/30 03:35:18;;;;;;;4.25;3.25;;;;;;;24.12;42.49;94835.34;5038897;28;20460;-81
2021/04/30 03:37:43;;;;;;;4.20;3.15;;;;;;;24.05;42.79;94814.16;5039571;28;20492;-81
2021/04/30 03:40:11;;;;;;;3.80;3.05;;;;;;;24.02;42.57;94809.72;5039508;28;20040;-79
2021/04/30 03:42:36;;;;;;;4.45;3.13;;;;;;;23.83;42.75;94781.00;5039394;28;20416;-82
2021/04/30 03:45:02;;;;;;;5.80;3.55;;;;;;;24.10;42.48;94829.69;5021945;28;20032;-82
2021/04/30 03:47:27;;;;;;;4.35;3.20;;;;;;;24.03;42.54;94833.00;5039139;28;20032;-82
2021/04/30 03:49:53;;;;;;;4.50;3.60;;;;;;;24.08;42.78;94834.94;5021372;28;20047;-82
2021/04/30 03:52:19;;;;;;;5.38;3.55;;;;;;;24.09;42.99;94830.94;5022069;28;20030;-82
2021/04/30 03:54:44;;;;;;;5.18;3.60;;;;;;;24.13;42.68;94825.94;5028359;28;20441;-80
2021/04/30 03:57:09;;;;;;;4.38;3.35;;;;;;;23.85;42.43;94799.56;5035544;28;20036;-80
2021/04/30 03:59:35;;;;;;;4.40;3.38;;;;;;;23.87;42.77;94793.09;5025396;28;20515;-75
2021/04/30 04:02:00;;;;;;;5.68;3.30;;;;;;;23.90;42.77;94813.88;5018242;28;20037;-76
2021/04/30 04:04:26;;;;;;;5.93;3.42;;;;;;;23.88;43.00;94789.09;5036142;28;20033;-74
2021/04/30 04:06:51;;;;;;;5.95;3.47;;;;;;;24.15;43.16;94850.69;5037398;28;20424;-77
2021/04/30 04:09:16;;;;;;;4.13;3.15;;;;;;;23.86;43.87;94817.41;5019732;28;20017;-76
2021/04/30 04:11:43;;;;;;;6.95;3.08;;;;;;;23.90;43.55;94824.78;5028038;28;20032;-75
2021/04/30 04:14:09;;;;;;;5.18;3.05;;;;;;;24.09;43.67;94852.03;5008550;28;20472;-78
2021/04/30 04:16:34;;;;;;;4.90;3.30;;;;;;;24.24;43.39;94872.16;5035448;28;20578;-78
2021/04/30 04:19:00;;;;;;;5.07;3.50;;;;;;;23.94;43.63;94836.09;5038742;28;20036;-76
2021/04/30 04:21:25;;;;;;;4.85;3.20;;;;;;;24.20;43.27;94866.25;5026373;28;20029;-80
2021/04/30 04:23:51;;;;;;;5.40;3.03;;;;;;;24.15;43.58;94860.88;5034581;28;20022;-79
2021/04/30 04:26:17;;;;;;;5.07;3.38;;;;;;;24.15;43.44;94891.63;5035907;28;20025;-80
2021/04/30 04:28:42;;;;;;;4.07;3.03;;;;;;;24.26;43.47;94910.59;5035206;28;20025;-78
2021/04/30 04:31:08;;;;;;;4.57;3.30;;;;;;;24.29;43.79;94917.75;5034599;28;20017;-76
2021/04/30 04:33:33;;;;;;;5.97;3.38;;;;;;;24.33;43.39;94910.00;5037176;28;20872;-76
2021/04/30 04:35:59;;;;;;;4.47;3.40;;;;;;;24.41;43.31;94911.63;5035504;28;20045;-79
2021/04/30 04:38:26;;;;;;;5.38;3.40;;;;;;;24.42;43.25;94923.28;5036067;28;20021;-78
2021/04/30 04:40:53;;;;;;;4.78;3.20;;;;;;;24.29;43.36;94882.25;5035939;28;20061;-81
2021/04/30 04:43:18;;;;;;;4.30;3.00;;;;;;;24.64;42.79;94917.50;5038809;28;20038;-82
2021/04/30 04:45:44;;;;;;;4.78;3.40;;;;;;;24.49;43.05;94896.13;5054380;28;20572;-77
2021/04/30 04:48:09;;;;;;;4.28;3.10;;;;;;;24.68;43.13;94917.91;5037235;28;20033;-77
2021/04/30 04:50:35;;;;;;;5.90;3.40;;;;;;;24.84;42.82;94921.16;5036887;28;20028;-77
2021/04/30 04:53:00;;;;;;;3.72;3.15;;;;;;;25.00;42.40;94928.34;5037423;28;20061;-79
2021/04/30 04:55:26;;;;;;;5.90;3.70;;;;;;;25.03;42.60;94938.22;5012473;28;20052;-77
2021/04/30 04:57:51;;;;;;;5.63;3.30;;;;;;;25.11;42.28;94939.13;5017820;28;20025;-76
2021/04/30 05:00:17;;;;;;;5.20;3.28;;;;;;;25.34;41.94;94934.72;5034734;28;20033;-77
2021/04/30 05:02:42;;;;;;;4.32;3.08;;;;;;;25.45;41.42;94923.59;5003231;28;20043;-75
2021/04/30 05:05:08;;;;;;;4.90;3.33;;;;;;;25.54;42.07;94915.69;5035928;28;20021;-78
2021/04/30 05:07:34;;;;;;;4.68;3.22;;;;;;;25.38;40.96;94885.94;5037388;28;20099;-78
2021/04/30 05:09:59;;;;;;;7.90;4.00;;;;;;;25.68;41.36;94916.47;5037226;28;20538;-78
2021/04/30 05:12:25;;;;;;;5.93;3.95;;;;;;;25.79;40.99;94909.50;5036514;28;20709;-78
2021/04/30 05:14:50;;;;;;;5.22;3.50;;;;;;;25.93;41.46;94902.03;5037126;28;20025;-78
2021/04/30 05:17:16;;;;;;;5.35;3.50;;;;;;;25.90;41.56;94897.63;5036487;28;20033;-77
2021/04/30 05:19:41;;;;;;;5.55;3.70;;;;;;;25.81;41.46;94868.72;5034966;28;20163;-79
2021/04/30 05:22:11;;;;;;;6.90;3.55;;;;;;;26.24;42.09;94904.59;5016879;28;20033;-76
2021/04/30 05:24:37;;;;;;;5.25;3.63;;;;;;;26.24;41.63;94893.66;5051006;28;20033;-77
2021/04/30 05:27:04;;;;;;;7.32;3.10;;;;;;;26.44;41.68;94912.16;5035146;28;20148;-77
2021/04/30 05:29:29;;;;;;;7.13;3.80;;;;;;;26.47;43.52;94922.03;5036014;28;20016;-82
2021/04/30 05:31:55;;;;;;;4.32;3.03;;;;;;;26.55;43.23;94917.41;5033303;28;20025;-75
2021/04/30 05:34:20;;;;;;;6.30;3.38;;;;;;;26.58;42.10;94913.59;5035397;28;20402;-76
2021/04/30 05:36:46;;;;;;;6.82;3.55;;;;;;;26.70;41.73;94923.03;5035890;28;20074;-76
2021/04/30 05:39:11;;;;;;;5.22;3.35;;;;;;;26.76;44.92;94920.91;5035500;28;20495;-76
2021/04/30 05:41:37;;;;;;;4.57;3.38;;;;;;;26.79;42.27;94926.75;5035131;28;20032;-77
2021/04/30 05:44:02;;;;;;;5.57;3.30;;;;;;;26.76;41.91;94909.94;5034908;28;20044;-75
2021/04/30 05:46:28;;;;;;;4.68;3.38;;;;;;;26.71;41.96;94891.59;5032862;28;20036;-78
2021/04/30 05:48:53;;;;;;;4.82;3.40;;;;;;;26.61;42.12;94887.88;5036744;28;20021;-82
2021/04/30 05:51:19;;;;;;;4.50;3.38;;;;;;;26.90;42.12;94926.53;5025476;28;20044;-82
2021/04/30 05:53:44;;;;;;;4.97;3.10;;;;;;;26.88;42.51;94923.56;5041078;28;20033;-82
2021/04/30 05:56:10;;;;;;;4.88;2.83;;;;;;;26.97;42.27;94936.81;5038904;28;20033;-84
2021/04/30 05:58:35;;;;;;;4.72;3.30;;;;;;;26.99;42.02;94939.75;5038412;28;20471;-77
2021/04/30 06:01:01;;;;;;;5.82;3.30;;;;;;;27.04;41.98;94941.66;5037310;28;20048;-82
2021/04/30 06:03:26;;;;;;;6.15;3.47;;;;;;;26.96;41.61;94929.13;5038516;28;20059;-78
2021/04/30 06:05:52;;;;;;;6.28;3.50;;;;;;;27.07;41.42;94935.09;5033804;28;20025;-80
2021/04/30 06:08:17;;;;;;;8.82;4.90;;;;;;;27.05;40.81;94937.63;5035573;28;20035;-79
2021/04/30 06:10:43;;;;;;;11.10;5.45;;;;;;;27.09;40.46;94932.56;5034877;28;20036;-75
2021/04/30 06:13:09;;;;;;;9.10;5.93;;;;;;;26.73;40.48;94894.56;5034397;28;20017;-76
2021/04/30 06:15:34;;;;;;;9.15;5.85;;;;;;;26.97;40.64;94925.88;5031058;28;20029;-75
2021/04/30 06:18:00;;;;;;;7.80;5.57;;;;;;;26.97;40.37;94925.88;5033993;28;20025;-76
2021/04/30 06:20:25;;;;;;;9.70;6.15;;;;;;;26.90;40.18;94926.53;5034505;28;20053;-76
2021/04/30 06:22:51;;;;;;;9.80;5.68;;;;;;;26.87;39.65;94927.56;5033877;28;20028;-76
2021/04/30 06:25:16;;;;;;;13.38;5.82;;;;;;;26.79;40.07;94931.53;5053458;28;20079;-76
2021/04/30 06:27:42;;;;;;;10.38;6.00;;;;;;;26.48;40.53;94929.72;5053064;28;20037;-75
2021/04/30 06:30:08;;;;;;;13.32;6.35;;;;;;;26.54;40.21;94937.81;5038441;28;20029;-76
2021/04/30 06:32:33;;;;;;;13.18;6.78;;;;;;;26.56;40.63;94929.81;5038577;28;20481;-75
2021/04/30 06:34:59;;;;;;;10.32;5.97;;;;;;;26.47;40.39;94935.72;5039026;28;20051;-75
2021/04/30 06:37:26;;;;;;;10.15;6.78;;;;;;;26.41;40.78;94935.13;5038118;28;20041;-74
2021/04/30 06:39:53;;;;;;;11.45;6.38;;;;;;;26.35;40.98;94932.53;5038695;28;20025;-76
2021/04/30 06:42:18;;;;;;;12.48;5.70;;;;;;;26.33;40.88;94939.78;5036638;28;20080;-74
2021/04/30 06:44:44;;;;;;;16.60;6.40;;;;;;;26.18;40.35;94934.09;5039037;28;20071;-76
2021/04/30 06:47:09;;;;;;;11.07;6.15;;;;;;;25.99;40.83;94944.47;5039038;28;20055;-75
2021/04/30 06:49:35;;;;;;;13.30;6.25;;;;;;;26.03;41.17;94949.59;5037102;28;20055;-74
2021/04/30 06:52:00;;;;;;;11.13;6.25;;;;;;;25.91;41.37;94960.03;5037402;28;20622;-75
2021/04/30 06:54:26;;;;;;;14.13;6.30;;;;;;;25.88;41.00;94949.41;5038269;28;20022;-74
2021/04/30 06:56:51;;;;;;;12.95;5.85;;;;;;;25.84;40.64;94947.00;5037465;28;20029;-74
2021/04/30 06:59:17;;;;;;;11.63;5.82;;;;;;;25.68;40.97;94947.31;5038789;28;20029;-74
2021/04/30 07:01:42;;;;;;;11.82;5.65;;;;;;;25.60;41.68;94945.69;5036397;28;20036;-74
2021/04/30 07:04:09;;;;;;;10.00;5.38;;;;;;;25.38;41.20;94902.34;5037918;28;20018;-74
2021/04/30 07:06:35;;;;;;;10.27;4.97;;;;;;;25.52;42.09;94947.59;5038525;28;20537;-74
2021/04/30 07:09:00;;;;;;;8.60;4.82;;;;;;;25.51;41.58;94940.63;5037970;28;20033;-75
2021/04/30 07:11:26;;;;;;;10.32;5.03;;;;;;;25.30;41.70;94939.75;5037641;28;20511;-74
2021/04/30 07:13:51;;;;;;;13.48;5.28;;;;;;;25.29;42.13;94935.56;5038527;28;20075;-75
2021/04/30 07:16:16;;;;;;;11.02;5.60;;;;;;;25.30;41.89;94955.44;5037824;28;20488;-75
2021/04/30 07:18:42;;;;;;;12.27;5.38;;;;;;;25.32;42.05;94942.72;5038413;28;20485;-75
2021/04/30 07:21:07;;;;;;;12.43;5.22;;;;;;;25.25;41.83;94954.28;5037270;28;20029;-74
2021/04/30 07:23:33;;;;;;;13.25;4.60;;;;;;;24.99;41.72;94915.22;5036830;28;20079;-75
2021/04/30 07:26:00;;;;;;;9.13;4.82;;;;;;;25.27;42.02;94946.28;5037400;28;20551;-74
2021/04/30 07:28:26;;;;;;;12.55;4.78;;;;;;;25.30;41.81;94945.22;5036596;28;20091;-74
2021/04/30 07:30:52;;;;;;;8.23;4.78;;;;;;;25.17;41.52;94937.03;5032249;28;20029;-74
2021/04/30 07:33:17;;;;;;;8.27;4.43;;;;;;;25.02;41.77;94917.66;5037082;28;20676;-74
2021/04/30 07:35:43;;;;;;;9.07;4.40;;;;;;;25.26;41.84;94944.81;5035913;28;20045;-74
2021/04/30 07:38:08;;;;;;;10.68;4.50;;;;;;;25.25;41.22;94943.34;5036623;28;20024;-74
2021/04/30 07:40:35;;;;;;;10.07;4.43;;;;;;;25.20;41.55;94935.97;5037871;28;20036;-75
2021/04/30 07:43:01;;;;;;;9.90;4.72;;;;;;;24.85;41.26;94889.81;5036916;28;20028;-74
2021/04/30 07:45:26;;;;;;;7.22;4.28;;;;;;;24.92;41.35;94900.16;5026734;28;20032;-74
2021/04/30 07:47:52;;;;;;;7.50;4.22;;;;;;;25.06;40.99;94926.25;5035899;28;20021;-75
2021/04/30 07:50:17;;;;;;;11.32;3.95;;;;;;;25.21;40.65;94926.50;5037435;28;20025;-74
2021/04/30 07:52:43;;;;;;;10.73;4.38;;;;;;;25.23;40.67;94932.19;5038466;28;20032;-75
2021/04/30 07:55:09;;;;;;;8.20;3.95;;;;;;;25.19;40.43;94929.03;5036245;28;20025;-75
2021/04/30 07:57:35;;;;;;;7.93;3.72;;;;;;;25.14;40.65;94927.13;5036552;28;20517;-75
2021/04/30 08:00:00;;;;;;;8.48;4.05;;;;;;;25.13;40.85;94920.19;5037000;28;20032;-75
2021/04/30 08:02:26;;;;;;;8.77;3.90;;;;;;;25.06;41.49;94920.06;5036135;28;20036;-75
2021/04/30 08:04:51;;;;;;;8.35;3.85;;;;;;;25.13;41.40;94920.19;5034910;28;20037;-75
2021/04/30 08:07:17;;;;;;;9.18;3.53;;;;;;;25.17;40.17;94915.16;5037525;28;20032;-73
2021/04/30 08:09:42;;;;;;;8.38;3.97;;;;;;;25.13;41.05;94914.72;5042698;28;20032;-74
2021/04/30 08:12:08;;;;;;;10.35;3.70;;;;;;;25.14;40.40;94910.75;5050381;28;20029;-73
2021/04/30 08:14:34;;;;;;;7.13;3.42;;;;;;;25.17;41.08;94912.44;5040714;28;20033;-75
2021/04/30 08:16:59;;;;;;;7.43;3.75;;;;;;;25.17;40.15;94909.69;5052548;28;20037;-75
2021/04/30 08:19:26;;;;;;;6.88;3.60;;;;;;;25.19;41.16;94912.63;5048381;28;20033;-71
2021/04/30 08:21:52;;;;;;;9.88;3.60;;;;;;;25.21;40.48;94904.63;5059258;28;20027;-70
2021/04/30 08:24:18;;;;;;;7.47;3.55;;;;;;;24.94;40.28;94875.75;5055934;28;20037;-73
2021/04/30 08:26:44;;;;;;;7.80;3.08;;;;;;;25.17;40.68;94898.00;5047906;28;20036;-74
2021/04/30 08:29:09;;;;;;;7.97;3.20;;;;;;;24.82;40.86;94834.78;5054703;28;20025;-74
2021/04/30 08:31:35;;;;;;;8.63;3.33;;;;;;;24.52;40.47;94806.97;5040277;28;20021;-74
2021/04/30 08:34:00;;;;;;;9.15;3.42;;;;;;;25.20;40.51;94899.69;5034982;28;20025;-74
2021/04/30 08:36:26;;;;;;;5.63;2.97;;;;;;;24.77;40.69;94821.94;5043436;28;20094;-73
2021/04/30 08:38:51;;;;;;;6.60;3.33;;;;;;;25.06;40.56;94888.00;5039185;28;20041;-75
2021/04/30 08:41:19;;;;;;;6.60;2.95;;;;;;;25.20;40.92;94886.03;5038098;28;20037;-74
2021/04/30 08:43:46;;;;;;;10.35;4.03;;;;;;;24.88;41.23;94850.53;5036449;28;20029;-75
2021/04/30 08:46:12;;;;;;;5.85;2.88;;;;;;;24.87;40.91;94843.63;5035644;28;20125;-75
2021/04/30 08:48:37;;;;;;;8.57;3.53;;;;;;;25.16;41.21;94886.34;5038023;28;20112;-75
2021/04/30 08:51:03;;;;;;;8.70;3.15;;;;;;;25.13;40.50;94887.41;5035291;28;20360;-75
2021/04/30 08:53:29;;;;;;;8.23;3.20;;;;;;;25.06;41.00;94877.06;5036699;28;20556;-75
2021/04/30 08:55:54;;;;;;;7.38;2.95;;;;;;;25.06;41.03;94866.16;5036279;28;20480;-75
2021/04/30 08:58:26;;;;;;;9.55;3.22;;;;;;;24.68;40.73;94808.69;5027581;28;20017;-75
2021/04/30 09:00:52;;;;;;;8.07;2.90;;;;;;;25.17;40.44;94874.16;5035095;28;20029;-75
2021/04/30 09:03:18;;;;;;;7.78;3.20;;;;;;;25.12;40.88;94869.50;5036989;28;20119;-75
2021/04/30 09:05:50;;;;;;;8.15;3.03;;;;;;;24.90;40.84;94841.81;5035966;28;20044;-74
2021/04/30 09:08:18;;;;;;;7.05;3.55;;;;;;;24.97;40.64;94825.53;5034219;28;20496;-75
2021/04/30 09:10:49;;;;;;;7.80;2.97;;;;;;;24.91;41.01;94824.16;5037243;28;20017;-75
2021/04/30 09:13:17;;;;;;;8.90;3.25;;;;;;;25.21;40.33;94866.38;5037320;28;20052;-75
2021/04/30 09:15:44;;;;;;;7.30;2.65;;;;;;;25.20;40.92;94867.66;5036320;28;20485;-75
2021/04/30 09:18:19;;;;;;;5.03;2.65;;;;;;;25.20;40.93;94870.38;5051738;28;20111;-75
2021/04/30 09:20:47;;;;;;;6.30;2.83;;;;;;;25.21;40.85;94860.91;5034930;28;20033;-75
2021/04/30 09:23:35;;;;;;;5.10;2.47;;;;;;;25.21;40.13;94860.91;5035697;28;20063;-75
2021/04/30 09:26:20;;;;;;;8.27;3.03;;;;;;;24.99;40.61;94828.53;5034949;28;20043;-75
2021/04/30 09:29:04;;;;;;;6.45;2.85;;;;;;;25.20;40.12;94862.19;5035293;28;20021;-75
2021/04/30 09:31:39;;;;;;;5.32;2.17;;;;;;;25.20;40.12;94864.91;5033732;28;20033;-75
2021/04/30 09:34:24;;;;;;;6.05;2.90;;;;;;;25.19;39.98;94855.25;5036170;28;20041;-75
2021/04/30 09:37:12;;;;;;;6.68;2.40;;;;;;;25.19;40.43;94855.25;5036303;28;20810;-75
2021/04/30 09:39:54;;;;;;;8.38;2.70;;;;;;;25.22;40.08;94851.44;5036510;28;20560;-74
2021/04/30 09:42:21;;;;;;;4.82;2.33;;;;;;;25.19;40.41;94847.03;5037131;28;20075;-75
2021/04/30 09:44:48;;;;;;;7.43;2.53;;;;;;;24.90;40.56;94793.41;5035956;28;20037;-75
2021/04/30 09:47:25;;;;;;;5.47;2.33;;;;;;;24.92;40.45;94796.34;5018807;28;20076;-75
2021/04/30 09:49:52;;;;;;;5.85;2.28;;;;;;;24.95;39.67;94811.69;5035371;28;20020;-75
2021/04/30 09:52:18;;;;;;;7.22;2.40;;;;;;;25.19;39.95;94844.31;5035206;28;20057;-75
2021/04/30 09:54:43;;;;;;;7.90;2.83;;;;;;;25.14;40.17;94839.69;5036651;28;20032;-75
2021/04/30 09:57:19;;;;;;;6.55;2.20;;;;;;;25.22;39.75;94846.00;5037048;28;20083;-76
2021/04/30 10:00:10;;;;;;;6.00;2.30;;;;;;;25.21;40.35;94839.03;5039205;28;20359;-75
2021/04/30 10:02:35;;;;;;;6.63;2.42;;;;;;;25.19;40.45;94830.63;5040551;28;20033;-75
2021/04/30 10:05:22;;;;;;;5.10;2.67;;;;;;;25.23;39.76;94830.31;5038998;28;20120;-74
2021/04/30 10:07:47;;;;;;;6.85;2.72;;;;;;;25.24;40.07;94827.06;5040083;28;20035;-75
2021/04/30 10:10:17;;;;;;;7.60;2.30;;;;;;;25.21;40.28;94822.63;5040455;28;20029;-75
2021/04/30 10:12:44;;;;;;;6.55;2.95;;;;;;;25.26;39.82;94835.50;5038469;28;20138;-75
2021/04/30 10:15:11;;;;;;;6.03;2.20;;;;;;;25.28;40.16;94819.28;5040292;28;20033;-75
2021/04/30 10:17:37;;;;;;;5.32;2.38;;;;;;;25.28;40.05;94816.56;5040603;28;20813;-75
2021/04/30 10:20:03;;;;;;;6.95;2.40;;;;;;;24.99;39.91;94773.88;5054829;28;20057;-75
2021/04/30 10:22:28;;;;;;;6.93;2.67;;;;;;;25.30;40.12;94803.09;5038502;28;20029;-75
2021/04/30 10:24:58;;;;;;;5.18;2.83;;;;;;;25.31;39.26;94804.56;5039774;28;20503;-75
2021/04/30 10:27:35;;;;;;;6.30;2.00;;;;;;;25.29;39.82;94800.88;5037429;28;20044;-76
2021/04/30 10:30:08;;;;;;;15.68;3.05;;;;;;;25.30;40.07;94791.44;5038068;28;20024;-75
2021/04/30 10:32:46;;;;;;;8.05;2.05;;;;;;;25.30;40.16;94785.97;5037965;28;20548;-75
2021/04/30 10:35:11;;;;;;;9.15;2.50;;;;;;;25.25;40.76;94784.81;5030367;28;20082;-83
2021/04/30 10:37:39;;;;;;;8.60;2.25;;;;;;;25.24;41.36;94777.84;5037491;28;20041;-82
2021/04/30 10:40:05;;;;;;;5.68;2.40;;;;;;;25.27;40.79;94787.75;5036582;28;20037;-75
2021/04/30 10:42:44;;;;;;;10.73;2.75;;;;;;;25.27;40.97;94781.53;5038661;28;20049;-78
2021/04/30 10:45:15;;;;;;;7.07;2.27;;;;;;;25.19;40.78;94781.44;5037420;28;20106;-75
2021/04/30 10:47:41;;;;;;;8.13;2.47;;;;;;;24.99;41.04;94741.09;5037988;28;20673;-81
2021/04/30 10:50:17;;;;;;;8.80;2.50;;;;;;;25.27;41.49;94765.88;5036522;28;20025;-81
2021/04/30 10:52:43;;;;;;;8.00;2.20;;;;;;;25.01;41.17;94722.19;5039012;28;20116;-75
2021/04/30 10:55:10;;;;;;;8.70;2.45;;;;;;;25.28;41.01;94761.88;5033784;28;20080;-70
2021/04/30 10:58:04;;;;;;;9.65;2.10;;;;;;;24.99;41.01;94697.38;5039893;28;20116;-83
2021/04/30 11:00:41;;;;;;;6.88;2.00;;;;;;;25.28;41.42;94740.00;5037180;28;20029;-85
2021/04/30 11:03:20;;;;;;;7.50;2.88;;;;;;;25.13;40.54;94711.78;5036712;28;20128;-74
2021/04/30 11:05:56;;;;;;;5.47;1.95;;;;;;;25.42;40.39;94738.72;5020198;28;20047;-72
2021/04/30 11:08:54;;;;;;;7.78;2.40;;;;;;;25.44;40.88;94730.72;5036466;28;20616;-78
2021/04/30 11:11:36;;;;;;;7.53;2.30;;;;;;;25.18;39.81;94681.56;5037124;28;20116;-76
2021/04/30 11:14:20;;;;;;;9.85;2.05;;;;;;;25.60;40.05;94721.44;5035187;28;20036;-74
2021/04/30 11:16:46;;;;;;;6.93;1.88;;;;;;;25.37;40.52;94676.72;5037568;28;20143;-75
2021/04/30 11:19:11;;;;;;;12.93;2.55;;;;;;;25.46;40.16;94684.47;5037128;28;20041;-79
2021/04/30 11:21:52;;;;;;;9.50;2.33;;;;;;;25.75;39.27;94727.09;5028475;28;20037;-78
2021/04/30 11:24:35;;;;;;;5.65;1.77;;;;;;;25.64;38.39;94694.50;5037578;28;20047;-82
2021/04/30 11:27:19;;;;;;;6.63;2.00;;;;;;;25.92;36.79;94725.47;5020310;28;20132;-81
2021/04/30 11:29:45;;;;;;;6.50;1.80;;;;;;;26.01;37.95;94717.50;5037116;28;20063;-83
2021/04/30 11:32:25;;;;;;;7.80;2.10;;;;;;;26.10;37.14;94708.84;5039667;28;20040;-80